Time;durP1;ratioP1;P1;durP2;ratioP2;P2;SDS_P1;SDS_P2;PMS_P1;PMS_P2;Temp;Humidity;BMP_temperature;BMP_pressure;BME280_temperature;BME280_humidity;BME280_pressure;Samples;Min_cycle;Max_cycle;Signal;HPM_P1;HPM_P2
2023/07/03 00:00:39;;;;;;;20.25;5.45;;;;;;;-144.73;71.98;54378.97;5010601;28;20030;-74
2023/07/03 00:03:05;;;;;;;19.55;5.93;;;;;;;-144.73;72.43;54391.28;5008563;28;20028;-74
2023/07/03 00:05:30;;;;;;;16.67;6.22;;;;;;;-144.73;71.57;54346.13;5011321;28;20037;-73
2023/07/03 00:07:55;;;;;;;18.60;5.93;;;;;;;-144.73;72.30;54391.28;5011778;28;20095;-74
2023/07/03 00:10:21;;;;;;;19.85;6.30;;;;;;;-144.73;71.59;54374.84;5027708;28;20125;-74
2023/07/03 00:12:47;;;;;;;13.73;5.55;;;;;;;-144.73;71.81;54370.75;5014605;28;20056;-74
2023/07/03 00:15:14;;;;;;;19.70;6.22;;;;;;;-144.73;71.21;54383.06;5033781;28;20104;-74
2023/07/03 00:17:40;;;;;;;26.88;6.30;;;;;;;-144.73;70.59;54378.97;5035285;28;20072;-75
2023/07/03 00:20:07;;;;;;;26.13;6.00;;;;;;;-144.73;71.02;54395.38;5033469;28;20025;-74
2023/07/03 00:22:32;;;;;;;19.38;5.68;;;;;;;-144.73;70.58;54415.91;5009915;28;20021;-74
2023/07/03 00:24:58;;;;;;;13.18;5.65;;;;;;;-144.73;71.27;54364.59;5013871;28;20029;-74
2023/07/03 00:27:23;;;;;;;17.42;5.47;;;;;;;-144.73;70.28;54356.38;5030314;28;20079;-74
2023/07/03 00:29:48;;;;;;;17.13;5.75;;;;;;;-144.73;70.75;54370.75;5013374;28;20038;-74
2023/07/03 00:32:14;;;;;;;18.13;5.32;;;;;;;-144.73;71.08;54381.00;5013420;28;20091;-74
2023/07/03 00:34:39;;;;;;;21.98;5.22;;;;;;;-144.73;70.92;54378.97;5029793;28;20037;-73
2023/07/03 00:37:04;;;;;;;15.10;5.43;;;;;;;-144.73;70.31;54354.34;5014103;28;20113;-73
2023/07/03 00:39:30;;;;;;;15.73;5.35;;;;;;;-144.73;70.07;54409.75;5012700;28;20028;-74
2023/07/03 00:41:55;;;;;;;18.85;6.10;;;;;;;-144.73;70.77;54391.28;5013417;28;20009;-73
2023/07/03 00:44:21;;;;;;;17.95;6.97;;;;;;;-144.73;71.71;54354.34;5012908;28;20021;-73
2023/07/03 00:46:50;;;;;;;21.08;6.40;;;;;;;-144.73;72.03;54391.28;5013904;28;20025;-74
2023/07/03 00:49:18;;;;;;;14.02;5.63;;;;;;;-144.73;72.38;54407.69;5028017;28;20022;-74
2023/07/03 00:51:46;;;;;;;17.98;6.03;;;;;;;-144.73;72.31;54378.97;5013165;28;20093;-74
2023/07/03 00:54:12;;;;;;;21.92;6.20;;;;;;;-144.73;71.96;54376.91;5029990;28;20017;-73
2023/07/03 00:56:38;;;;;;;20.35;5.82;;;;;;;-144.73;72.20;54391.28;5029779;28;20030;-73
2023/07/03 00:59:04;;;;;;;18.50;6.63;;;;;;;-144.73;70.88;54346.13;5014226;28;20025;-74
2023/07/03 01:01:34;;;;;;;19.75;5.72;;;;;;;-144.73;70.98;54407.69;5013132;28;20128;-73
2023/07/03 01:04:08;;;;;;;17.30;6.20;;;;;;;-144.73;70.75;54358.44;5026511;28;20109;-74
2023/07/03 01:06:40;;;;;;;14.02;5.47;;;;;;;-144.73;71.25;54354.34;5011680;28;20083;-74
2023/07/03 01:09:08;;;;;;;;;;;;;;;-144.73;71.87;54383.06;5030938;28;20025;-74
2023/07/03 01:11:34;;;;;;;20.85;6.63;;;;;;;-144.73;71.91;54385.13;5030092;28;19917;-74
2023/07/03 01:14:02;;;;;;;19.67;6.38;;;;;;;-144.73;71.85;54358.44;5031284;28;20057;-74
2023/07/03 01:16:30;;;;;;;18.20;6.07;;;;;;;-144.73;71.27;54356.38;5028839;28;20060;-74
2023/07/03 01:18:57;;;;;;;20.30;6.18;;;;;;;-144.73;72.00;54346.13;5008286;28;20029;-74
2023/07/03 01:21:39;;;;;;;21.85;5.72;;;;;;;-144.73;72.10;54378.97;5012331;28;20538;-73
2023/07/03 01:24:11;;;;;;;18.60;6.15;;;;;;;-144.73;72.38;54325.59;5010525;28;20024;-74
2023/07/03 01:26:38;;;;;;;24.38;6.60;;;;;;;-144.73;72.21;54374.84;5010402;28;20026;-74
2023/07/03 01:29:06;;;;;;;22.40;6.15;;;;;;;-144.73;72.62;54362.53;5030286;28;20090;-73
2023/07/03 01:31:33;;;;;;;18.92;6.43;;;;;;;-144.73;72.52;54407.69;5028794;28;20041;-73
2023/07/03 01:34:00;;;;;;;16.35;6.00;;;;;;;-144.73;72.44;54376.91;5030569;28;20023;-73
2023/07/03 01:36:28;;;;;;;22.27;6.20;;;;;;;-144.73;72.31;54378.97;5028684;28;20041;-74
2023/07/03 01:38:54;;;;;;;23.42;7.00;;;;;;;-144.73;73.32;54329.72;5030524;28;20017;-74
2023/07/03 01:41:20;;;;;;;21.50;6.50;;;;;;;-144.73;73.49;54395.38;5029433;28;20090;-73
2023/07/03 01:43:46;;;;;;;20.23;6.20;;;;;;;-144.73;73.35;54424.13;5012492;28;20026;-73
2023/07/03 01:46:12;;;;;;;24.83;7.15;;;;;;;-144.73;74.18;54411.81;5040156;28;20383;-73
2023/07/03 01:48:37;;;;;;;21.63;6.68;;;;;;;-144.73;74.77;54350.22;5014034;28;20026;-74
2023/07/03 01:51:06;;;;;;;22.08;6.13;;;;;;;-144.73;74.63;54356.38;5020161;28;20532;-74
2023/07/03 01:53:45;;;;;;;13.90;5.88;;;;;;;-144.73;75.12;54374.84;5022735;28;20030;-73
2023/07/03 01:56:25;;;;;;;34.97;6.68;;;;;;;-144.73;75.75;54436.44;5014561;28;20045;-74
2023/07/03 01:59:02;;;;;;;14.98;5.68;;;;;;;-144.73;75.80;54374.84;5017495;28;20029;-73
2023/07/03 02:01:41;;;;;;;25.00;6.63;;;;;;;-144.73;76.55;54395.38;5032226;28;20405;-73
2023/07/03 02:04:17;;;;;;;19.17;5.97;;;;;;;-144.73;77.28;54391.28;5016864;28;20029;-74
2023/07/03 02:06:45;;;;;;;18.10;5.97;;;;;;;-144.73;77.18;54383.06;5020241;28;20113;-73
2023/07/03 02:09:11;;;;;;;21.73;5.88;;;;;;;-144.73;77.59;54374.84;5011453;28;20017;-73
2023/07/03 02:11:36;;;;;;;27.35;6.78;;;;;;;-144.73;77.73;54350.22;5011806;28;20073;-74
2023/07/03 02:14:02;;;;;;;17.00;6.35;;;;;;;-144.73;78.67;54350.22;5010197;28;20059;-73
2023/07/03 02:16:31;;;;;;;31.38;8.45;;;;;;;-144.73;79.40;54333.81;5021462;28;20097;-74
2023/07/03 02:18:58;;;;;;;21.58;7.05;;;;;;;-144.73;79.68;54383.06;5010762;28;20021;-73
2023/07/03 02:21:24;;;;;;;23.67;6.63;;;;;;;-144.73;79.92;54407.69;5028618;28;20033;-73
2023/07/03 02:23:49;;;;;;;21.15;5.22;;;;;;;-144.73;80.50;54387.19;5004302;28;20084;-74
2023/07/03 02:26:15;;;;;;;22.23;6.47;;;;;;;-144.73;82.74;54387.19;5010948;28;20036;-74
2023/07/03 02:28:41;;;;;;;24.95;6.75;;;;;;;-144.73;83.00;54374.84;5011545;28;20033;-74
2023/07/03 02:31:06;;;;;;;25.15;7.45;;;;;;;-144.73;84.40;54374.84;5025126;28;20435;-73
2023/07/03 02:33:32;;;;;;;17.73;5.85;;;;;;;-144.73;84.28;54350.22;5023508;28;20379;-73
2023/07/03 02:36:02;;;;;;;28.02;7.35;;;;;;;-144.73;84.30;54387.19;5003632;28;20120;-73
2023/07/03 02:38:27;;;;;;;21.90;7.30;;;;;;;-144.73;83.73;54362.53;5005340;28;20048;-73
2023/07/03 02:40:52;;;;;;;23.08;7.05;;;;;;;-144.73;84.23;54383.06;5018340;28;20114;-73
2023/07/03 02:43:18;;;;;;;28.35;7.15;;;;;;;-144.73;84.34;54395.38;5013883;28;20044;-74
2023/07/03 02:45:43;;;;;;;30.58;7.15;;;;;;;-144.73;84.64;54415.91;5012023;28;20116;-73
2023/07/03 02:48:10;;;;;;;23.30;6.72;;;;;;;-144.73;84.22;54383.06;5011803;28;20047;-73
2023/07/03 02:50:35;;;;;;;21.02;6.72;;;;;;;-144.73;84.35;54362.53;5005879;28;20037;-73
2023/07/03 02:53:01;;;;;;;25.40;6.82;;;;;;;-144.73;84.30;54411.81;5029174;28;20022;-74
2023/07/03 02:55:26;;;;;;;20.35;6.80;;;;;;;-144.73;85.13;54391.28;5009647;28;20029;-74
2023/07/03 02:57:54;;;;;;;23.30;7.47;;;;;;;-144.73;84.80;54346.13;5028273;28;20033;-74
2023/07/03 03:00:20;;;;;;;23.40;7.22;;;;;;;-144.73;84.33;54385.13;5024908;28;20036;-74
2023/07/03 03:02:47;;;;;;;26.45;6.72;;;;;;;-144.73;83.38;54407.69;5027531;28;20044;-74
2023/07/03 03:05:13;;;;;;;33.00;6.65;;;;;;;-144.73;83.74;54407.69;5035565;28;20025;-73
2023/07/03 03:07:39;;;;;;;20.58;6.63;;;;;;;-144.73;83.73;54374.84;5017753;28;20024;-74
2023/07/03 03:10:05;;;;;;;18.10;6.00;;;;;;;-144.73;82.36;54407.69;5018734;28;20572;-74
2023/07/03 03:12:30;;;;;;;22.50;7.60;;;;;;;-144.73;82.51;54374.84;5012515;28;20104;-73
2023/07/03 03:14:55;;;;;;;15.40;5.82;;;;;;;-144.73;83.21;54407.69;5002906;28;20030;-73
2023/07/03 03:17:21;;;;;;;19.95;5.55;;;;;;;-144.73;82.76;54378.97;5024095;28;20021;-73
2023/07/03 03:19:46;;;;;;;21.13;6.50;;;;;;;-144.73;83.31;54358.44;5009535;28;20029;-73
2023/07/03 03:22:11;;;;;;;23.35;7.90;;;;;;;-144.73;82.77;54430.28;5007332;28;20109;-74
2023/07/03 03:24:37;;;;;;;24.50;6.85;;;;;;;-144.73;83.75;54407.69;5014480;28;20032;-73
2023/07/03 03:27:06;;;;;;;22.30;6.40;;;;;;;-144.73;83.10;54428.22;5034487;28;20026;-74
2023/07/03 03:29:33;;;;;;;26.35;6.72;;;;;;;-144.73;83.59;54407.69;5028967;28;20061;-74
2023/07/03 03:31:59;;;;;;;23.00;6.78;;;;;;;-144.73;84.62;54407.69;5010508;28;20033;-73
2023/07/03 03:34:24;;;;;;;24.77;6.88;;;;;;;-144.73;84.95;54368.69;5020538;28;20063;-74
2023/07/03 03:36:49;;;;;;;27.25;7.00;;;;;;;-144.73;84.71;54430.28;5018429;28;20032;-74
2023/07/03 03:39:15;;;;;;;24.65;6.03;;;;;;;-144.73;85.75;54383.06;5028307;28;20037;-73
2023/07/03 03:41:40;;;;;;;24.73;6.15;;;;;;;-144.73;85.13;54411.81;5037449;28;20035;-74
2023/07/03 03:44:06;;;;;;;27.98;7.47;;;;;;;-144.73;86.20;54387.19;5042786;28;20024;-73
2023/07/03 03:46:32;;;;;;;27.13;7.38;;;;;;;-144.73;86.20;54407.69;5017818;28;20048;-74
2023/07/03 03:48:57;;;;;;;24.23;6.20;;;;;;;-144.73;86.78;54362.53;5027821;28;20036;-75
2023/07/03 03:51:23;;;;;;;27.02;6.90;;;;;;;-144.73;86.09;54387.19;5022696;28;20038;-74
2023/07/03 03:53:48;;;;;;;25.75;8.10;;;;;;;-144.73;87.36;54391.28;5030108;28;20040;-74
2023/07/03 03:56:14;;;;;;;35.28;8.38;;;;;;;-144.73;87.76;54356.38;5025515;28;20029;-74
2023/07/03 03:58:40;;;;;;;22.83;6.60;;;;;;;-144.73;86.94;54387.19;5032000;28;20021;-74
2023/07/03 04:01:05;;;;;;;27.38;7.18;;;;;;;-144.73;87.88;54383.06;5013996;28;20037;-75
2023/07/03 04:03:30;;;;;;;25.83;7.13;;;;;;;-144.73;88.01;54354.34;5014130;28;20025;-74
2023/07/03 04:05:56;;;;;;;25.02;7.05;;;;;;;-144.73;87.29;54383.06;5014630;28;20029;-74
2023/07/03 04:08:21;;;;;;;28.50;7.22;;;;;;;-144.73;87.50;54364.59;5012867;28;20072;-74
2023/07/03 04:10:47;;;;;;;25.60;7.25;;;;;;;-144.73;88.39;54362.53;5030494;28;20033;-74
2023/07/03 04:13:13;;;;;;;30.98;7.28;;;;;;;-144.73;89.08;54409.75;5028136;28;20131;-74
2023/07/03 04:16:08;;;;;;;27.60;8.02;;;;;;;-144.73;87.81;54415.91;5014299;28;20033;-74
2023/07/03 04:18:33;;;;;;;24.45;6.80;;;;;;;-144.73;87.50;54407.69;5014188;28;20045;-74
2023/07/03 04:20:59;;;;;;;30.60;6.95;;;;;;;-144.73;87.90;54387.19;5033126;28;20124;-74
2023/07/03 04:23:25;;;;;;;25.77;7.60;;;;;;;-144.73;86.85;54358.44;5012254;28;20018;-74
2023/07/03 04:25:51;;;;;;;33.92;8.27;;;;;;;-144.73;88.01;54411.81;5031306;28;20551;-74
2023/07/03 04:28:19;;;;;;;30.20;7.25;;;;;;;-144.73;87.13;54378.97;5031494;28;20386;-74
2023/07/03 04:30:45;;;;;;;21.30;6.03;;;;;;;-144.73;87.38;54362.53;5013565;28;20040;-74
2023/07/03 04:33:11;;;;;;;30.15;6.85;;;;;;;-144.73;87.36;54354.34;5013790;28;20025;-74
2023/07/03 04:35:37;;;;;;;29.58;8.07;;;;;;;-144.73;88.65;54376.91;5034530;28;20044;-74
2023/07/03 04:38:03;;;;;;;27.05;7.47;;;;;;;-144.73;88.00;54391.28;5030192;28;20029;-74
2023/07/03 04:40:29;;;;;;;25.55;7.22;;;;;;;-144.73;88.29;54387.19;5018429;28;20056;-74
2023/07/03 04:42:54;;;;;;;29.45;7.90;;;;;;;-144.73;88.01;54407.69;5016366;28;20052;-73
2023/07/03 04:45:21;;;;;;;39.28;8.98;;;;;;;-144.73;90.12;54350.22;5015645;28;20026;-74
2023/07/03 04:47:49;;;;;;;29.75;7.15;;;;;;;-144.73;90.85;54372.81;5031115;28;20513;-74
2023/07/03 04:50:15;;;;;;;30.52;7.55;;;;;;;-144.73;91.95;54411.81;5030142;28;20430;-74
2023/07/03 04:52:41;;;;;;;26.88;7.43;;;;;;;-144.73;92.00;54391.28;5013673;28;20088;-74
2023/07/03 04:55:09;;;;;;;31.38;7.32;;;;;;;-144.73;91.62;54333.81;5013518;28;20025;-73
2023/07/03 04:57:38;;;;;;;27.98;7.60;;;;;;;-144.73;91.95;54362.53;5030538;28;20021;-74
2023/07/03 05:00:16;;;;;;;27.58;6.82;;;;;;;-144.73;91.95;54407.69;5014111;28;20044;-74
2023/07/03 05:02:46;;;;;;;27.05;6.60;;;;;;;-144.73;91.30;54378.97;5030376;28;20520;-74
2023/07/03 05:05:13;;;;;;;34.83;8.48;;;;;;;-144.73;91.71;54424.13;5029584;28;20462;-74
2023/07/03 05:07:39;;;;;;;28.55;7.53;;;;;;;-144.73;92.67;54391.28;5030554;28;20013;-74
2023/07/03 05:10:07;;;;;;;29.02;7.07;;;;;;;-144.73;92.67;54358.44;5013318;28;20025;-74
2023/07/03 05:12:33;;;;;;;31.35;7.50;;;;;;;-144.73;92.96;54411.81;5030399;28;20112;-74
2023/07/03 05:14:58;;;;;;;31.67;7.72;;;;;;;-144.73;92.14;54411.81;5012961;28;20164;-74
2023/07/03 05:17:24;;;;;;;28.15;7.80;;;;;;;-144.73;94.08;54407.69;5027807;28;20029;-74
2023/07/03 05:19:49;;;;;;;30.00;7.15;;;;;;;-144.73;93.23;54387.19;5015580;28;20121;-74
2023/07/03 05:22:15;;;;;;;26.00;6.82;;;;;;;-144.73;93.83;54420.00;5004207;28;20041;-75
2023/07/03 05:24:40;;;;;;;47.42;8.55;;;;;;;-144.73;93.37;54387.19;5006833;28;20042;-75
2023/07/03 05:27:05;;;;;;;28.77;7.43;;;;;;;-144.73;93.32;54366.66;5012681;28;20032;-75
2023/07/03 05:29:32;;;;;;;24.38;6.97;;;;;;;-144.73;94.18;54395.38;5012329;28;20485;-75
2023/07/03 05:32:00;;;;;;;22.05;7.68;;;;;;;-144.73;94.75;54387.19;5027755;28;20068;-74
2023/07/03 05:34:26;;;;;;;27.48;8.77;;;;;;;-144.73;93.32;54350.22;5028598;28;20028;-74
2023/07/03 05:36:51;;;;;;;27.58;7.93;;;;;;;-144.73;94.07;54362.53;5029918;28;20640;-74
2023/07/03 05:39:17;;;;;;;27.85;7.47;;;;;;;-144.73;92.62;54370.75;5029890;28;20087;-75
2023/07/03 05:41:42;;;;;;;32.88;8.45;;;;;;;-144.73;94.75;54387.19;5007130;28;20029;-75
2023/07/03 05:44:08;;;;;;;36.30;8.93;;;;;;;-144.73;93.30;54362.53;5012935;28;20021;-75
2023/07/03 05:46:33;;;;;;;28.33;7.20;;;;;;;-144.73;93.40;54370.75;5012371;28;20025;-74
2023/07/03 05:48:58;;;;;;;29.85;7.43;;;;;;;-144.73;92.73;54378.97;5030121;28;20029;-74
2023/07/03 05:51:24;;;;;;;33.40;7.72;;;;;;;-144.73;92.23;54378.97;5006227;28;20495;-74
2023/07/03 05:53:50;;;;;;;28.73;7.88;;;;;;;-144.73;91.59;54374.84;5007031;28;20029;-75
2023/07/03 05:56:15;;;;;;;38.45;8.40;;;;;;;-144.73;92.74;54374.84;5005136;28;20041;-75
2023/07/03 05:58:41;;;;;;;37.65;8.55;;;;;;;-144.73;92.39;54383.06;5006109;28;20024;-75
2023/07/03 06:01:06;;;;;;;33.33;8.00;;;;;;;-144.73;94.02;54374.84;5014793;28;20041;-74
2023/07/03 06:03:31;;;;;;;26.77;7.85;;;;;;;-144.73;93.04;54368.69;5009069;28;20090;-75
2023/07/03 06:05:58;;;;;;;34.03;8.00;;;;;;;-144.73;93.73;54366.66;5012212;28;20087;-74
2023/07/03 06:08:24;;;;;;;27.75;7.13;;;;;;;-144.73;93.78;54372.81;5028811;28;20032;-75
2023/07/03 06:10:49;;;;;;;24.63;6.95;;;;;;;-144.73;89.42;54374.84;5011680;28;20034;-73
2023/07/03 06:13:15;;;;;;;33.10;6.85;;;;;;;-144.73;88.81;54407.69;5010542;28;20029;-73
2023/07/03 06:15:41;;;;;;;26.90;7.03;;;;;;;-144.73;90.04;54358.44;5030138;28;20478;-74
2023/07/03 06:18:07;;;;;;;24.08;6.55;;;;;;;-144.73;89.19;54383.06;5029854;28;20068;-73
2023/07/03 06:20:34;;;;;;;25.52;6.40;;;;;;;-144.73;86.40;54378.97;5012460;28;20029;-73
2023/07/03 06:22:59;;;;;;;40.22;7.65;;;;;;;-144.73;86.23;54387.19;5012651;28;20108;-74
2023/07/03 06:25:25;;;;;;;31.20;7.05;;;;;;;-144.73;88.53;54391.28;5030564;28;20052;-74
2023/07/03 06:27:50;;;;;;;34.45;7.57;;;;;;;-144.73;89.17;54368.69;5013615;28;20016;-73
2023/07/03 06:30:16;;;;;;;28.15;8.35;;;;;;;-144.73;88.56;54393.34;5031471;28;20033;-74
2023/07/03 06:32:41;;;;;;;27.85;7.22;;;;;;;-144.73;88.68;54407.69;5022223;28;20036;-74
2023/07/03 06:35:07;;;;;;;25.08;6.53;;;;;;;-144.73;86.99;54362.53;5005218;28;20402;-74
2023/07/03 06:37:33;;;;;;;28.30;7.13;;;;;;;-144.73;89.02;54362.53;4998449;28;20176;-74
2023/07/03 06:39:58;;;;;;;39.60;7.82;;;;;;;-144.73;88.53;54370.75;5029676;28;20378;-74
2023/07/03 06:42:24;;;;;;;34.20;8.32;;;;;;;-144.73;88.68;54366.66;5027304;28;20032;-75
2023/07/03 06:44:49;;;;;;;26.92;7.00;;;;;;;-144.73;87.37;54383.06;5011484;28;20040;-75
2023/07/03 06:47:14;;;;;;;40.10;8.07;;;;;;;-144.73;89.06;54389.22;5009733;28;20053;-74
2023/07/03 06:49:40;;;;;;;36.92;8.05;;;;;;;-144.73;90.71;54383.06;5008483;28;20045;-75
2023/07/03 06:52:06;;;;;;;32.10;6.85;;;;;;;-144.73;90.99;54354.34;5008166;28;20105;-74
2023/07/03 06:54:31;;;;;;;35.45;7.38;;;;;;;-144.73;90.73;54350.22;5028977;28;20111;-74
2023/07/03 06:56:56;;;;;;;29.20;7.45;;;;;;;-144.73;88.34;54366.66;5012834;28;20017;-75
2023/07/03 06:59:22;;;;;;;36.28;7.30;;;;;;;-144.73;88.30;54358.44;5009421;28;20037;-75
2023/07/03 07:01:47;;;;;;;24.25;7.43;;;;;;;-144.73;91.46;54383.06;5011172;28;20018;-74
2023/07/03 07:04:14;;;;;;;24.65;6.47;;;;;;;-144.73;91.43;54407.69;5027303;28;20470;-75
2023/07/03 07:06:40;;;;;;;32.47;7.25;;;;;;;-144.73;88.76;54370.75;5026756;28;20047;-74
2023/07/03 07:09:05;;;;;;;29.10;7.32;;;;;;;-144.73;87.97;54342.03;5011513;28;20479;-75
2023/07/03 07:11:34;;;;;;;31.25;6.38;;;;;;;-144.73;89.77;54432.31;5010535;28;20123;-73
2023/07/03 07:14:01;;;;;;;26.88;6.95;;;;;;;-144.73;92.45;54383.06;5024868;28;20482;-74
2023/07/03 07:16:31;;;;;;;33.08;7.60;;;;;;;-144.73;93.06;54358.44;5010721;28;20029;-74
2023/07/03 07:19:01;;;;;;;28.45;6.70;;;;;;;-144.73;95.31;54389.22;5028595;28;20013;-74
2023/07/03 07:21:29;;;;;;;25.60;6.00;;;;;;;-144.73;94.92;54407.69;5013489;28;20029;-74
2023/07/03 07:23:57;;;;;;;27.88;6.43;;;;;;;-144.73;94.79;54333.81;5031600;28;20080;-73
2023/07/03 07:26:27;;;;;;;35.90;7.80;;;;;;;-144.73;93.82;54337.91;5031439;28;20052;-73
2023/07/03 07:28:52;;;;;;;30.13;5.97;;;;;;;-144.73;90.85;54383.06;5032568;28;20684;-74
2023/07/03 07:31:22;;;;;;;27.10;7.18;;;;;;;-144.73;88.30;54385.13;5031495;28;20049;-74
2023/07/03 07:33:48;;;;;;;26.50;6.45;;;;;;;-144.73;90.34;54374.84;5031558;28;20089;-75
2023/07/03 07:36:19;;;;;;;33.83;7.40;;;;;;;-144.73;91.20;54407.69;5014213;28;20118;-75
2023/07/03 07:38:44;;;;;;;25.25;6.57;;;;;;;-144.73;92.51;54362.53;5015577;28;20021;-73
2023/07/03 07:41:11;;;;;;;32.22;6.40;;;;;;;-144.73;91.19;54389.22;5011353;28;20030;-73
2023/07/03 07:43:36;;;;;;;27.20;5.95;;;;;;;-144.73;90.50;54378.97;5032643;28;20021;-74
2023/07/03 07:46:02;;;;;;;18.70;5.30;;;;;;;-144.73;91.67;54395.38;5014787;28;20040;-74
2023/07/03 07:48:27;;;;;;;25.73;6.13;;;;;;;-144.73;91.93;54305.06;5030924;28;20014;-74
2023/07/03 07:50:52;;;;;;;30.33;6.25;;;;;;;-144.73;88.06;54354.34;5014964;28;20117;-74
2023/07/03 07:53:18;;;;;;;26.40;7.00;;;;;;;-144.73;85.29;54366.66;5032214;28;20021;-75
2023/07/03 07:55:44;;;;;;;23.58;5.82;;;;;;;-144.73;83.70;54333.81;5015436;28;20030;-74
2023/07/03 07:58:10;;;;;;;22.25;5.38;;;;;;;-144.73;80.35;54374.84;5032532;28;20017;-74
2023/07/03 08:00:35;;;;;;;26.60;5.63;;;;;;;-144.73;80.24;54333.81;5032280;28;20032;-72
2023/07/03 08:03:01;;;;;;;23.98;6.13;;;;;;;-144.73;81.28;54325.59;5032813;28;20029;-72
2023/07/03 08:05:26;;;;;;;30.52;6.82;;;;;;;-144.73;80.93;54407.69;5017766;28;20030;-73
2023/07/03 08:07:52;;;;;;;24.83;6.72;;;;;;;-144.73;82.13;54407.69;5018492;28;20020;-72
2023/07/03 08:10:18;;;;;;;19.25;5.20;;;;;;;-144.73;81.82;54378.97;5017042;28;20130;-73
2023/07/03 08:12:43;;;;;;;28.05;5.78;;;;;;;-144.73;80.54;54321.50;5013341;28;20102;-72
2023/07/03 08:15:09;;;;;;;23.90;4.97;;;;;;;-144.73;78.08;54329.72;5032984;28;20402;-73
2023/07/03 08:17:35;;;;;;;24.80;5.88;;;;;;;-144.73;75.58;54374.84;5033596;28;20075;-73
2023/07/03 08:20:00;;;;;;;14.98;4.47;;;;;;;-144.73;76.04;54370.75;5015685;28;20029;-72
2023/07/03 08:22:26;;;;;;;19.90;4.47;;;;;;;-144.73;75.41;54407.69;5013677;28;20073;-71
2023/07/03 08:24:51;;;;;;;20.75;5.35;;;;;;;-144.73;79.00;54424.13;5016184;28;20033;-72
2023/07/03 08:27:16;;;;;;;20.70;4.72;;;;;;;-144.73;81.45;54366.66;5015627;28;20100;-71
2023/07/03 08:29:42;;;;;;;31.75;6.13;;;;;;;-144.73;87.08;54395.38;5033020;28;20064;-70
2023/07/03 08:32:09;;;;;;;25.27;5.22;;;;;;;-144.73;95.47;54354.34;5032036;28;20057;-71
2023/07/03 08:34:35;;;;;;;31.52;5.88;;;;;;;-144.73;97.06;54329.72;5032929;28;20029;-71
2023/07/03 08:37:00;;;;;;;29.30;6.20;;;;;;;-144.73;96.19;54346.13;5030507;28;20093;-72
2023/07/03 08:39:26;;;;;;;32.72;6.03;;;;;;;-144.73;92.89;54358.44;5035495;28;20037;-72
2023/07/03 08:42:01;;;;;;;31.15;6.93;;;;;;;-144.73;87.84;54381.00;5011265;28;20017;-72
2023/07/03 08:44:28;;;;;;;28.60;6.05;;;;;;;-144.73;84.08;54358.44;5010942;28;20033;-71
2023/07/03 08:46:56;;;;;;;19.00;4.53;;;;;;;-144.73;75.77;54354.34;5022452;28;20023;-72
2023/07/03 08:49:24;;;;;;;28.23;4.82;;;;;;;-144.73;71.95;54362.53;5035974;28;20044;-73
2023/07/03 08:51:59;;;;;;;32.13;5.43;;;;;;;-144.73;71.89;54358.44;5021856;28;20030;-71
2023/07/03 08:54:34;;;;;;;23.52;5.10;;;;;;;-144.73;74.54;54350.22;5038762;28;20021;-72
2023/07/03 08:57:01;;;;;;;18.48;4.72;;;;;;;-144.73;75.85;54325.59;5038276;28;20021;-71
2023/07/03 08:59:27;;;;;;;20.42;4.68;;;;;;;-144.73;76.22;54374.84;5014760;28;20021;-73
2023/07/03 09:02:23;;;;;;;26.80;5.90;;;;;;;-144.73;79.68;54395.38;5038347;28;20032;-71
2023/07/03 09:04:58;;;;;;;16.17;3.95;;;;;;;-144.73;82.45;54383.06;4997193;28;20086;-72
2023/07/03 09:07:29;;;;;;;20.75;5.45;;;;;;;-144.73;83.51;54395.38;5036279;28;20028;-74
2023/07/03 09:10:06;;;;;;;20.13;4.05;;;;;;;-144.73;81.89;54391.28;5015160;28;20045;-72
2023/07/03 09:12:38;;;;;;;27.33;5.60;;;;;;;-144.73;79.43;54356.38;5024101;28;20021;-72
2023/07/03 09:15:17;;;;;;;17.08;4.65;;;;;;;-144.73;73.38;54350.22;5021717;28;20057;-71
2023/07/03 09:17:44;;;;;;;19.38;4.57;;;;;;;-144.73;72.63;54350.22;5027547;28;20017;-72
2023/07/03 09:20:12;;;;;;;22.92;6.15;;;;;;;-144.73;69.55;54321.50;5015299;28;20132;-71
2023/07/03 09:22:38;;;;;;;25.23;5.63;;;;;;;-144.73;70.39;54321.50;5031138;28;20032;-71
2023/07/03 09:25:06;;;;;;;19.17;4.47;;;;;;;-144.73;65.83;54385.13;5025236;28;20037;-72
2023/07/03 09:27:31;;;;;;;15.60;4.22;;;;;;;-144.73;64.82;54313.28;5030677;28;20023;-72
2023/07/03 09:30:06;;;;;;;13.57;3.67;;;;;;;-144.73;67.03;54358.44;5014348;28;20025;-73
2023/07/03 09:32:33;;;;;;;25.13;4.30;;;;;;;-144.73;65.46;54303.03;5029638;28;20033;-71
2023/07/03 09:35:13;;;;;;;17.92;4.43;;;;;;;-144.73;62.93;54370.75;5026334;28;20113;-72
2023/07/03 09:37:44;;;;;;;19.67;3.63;;;;;;;-144.73;60.15;54296.88;5013684;28;20033;-74
2023/07/03 09:40:18;;;;;;;18.65;4.00;;;;;;;-144.73;60.15;54323.53;5029913;28;20034;-73
2023/07/03 09:42:44;;;;;;;13.02;3.60;;;;;;;-144.73;60.10;54259.91;5028904;28;20025;-72
2023/07/03 09:45:18;;;;;;;14.23;3.72;;;;;;;-144.73;62.48;54391.28;5009805;28;20041;-72
2023/07/03 09:47:49;;;;;;;12.18;3.13;;;;;;;-144.73;63.44;54315.34;5028834;28;20022;-72
2023/07/03 09:50:21;;;;;;;18.60;4.35;;;;;;;-144.73;66.52;54374.84;5013499;28;20056;-71
2023/07/03 09:52:47;;;;;;;18.10;3.97;;;;;;;-144.73;66.89;54333.81;5029047;28;20024;-72
2023/07/03 09:55:12;;;;;;;18.50;3.80;;;;;;;-144.73;63.48;54370.75;5013040;28;20025;-71
2023/07/03 09:57:39;;;;;;;21.60;3.88;;;;;;;-144.73;64.12;54354.34;5011865;28;20029;-72
2023/07/03 10:00:11;;;;;;;18.17;3.22;;;;;;;-144.73;62.63;54309.19;5030908;28;20044;-71
2023/07/03 10:02:37;;;;;;;13.00;2.92;;;;;;;-144.73;60.69;54362.53;5030433;28;20104;-71
2023/07/03 10:05:04;;;;;;;24.20;3.17;;;;;;;-144.73;62.53;54362.53;5013189;28;20108;-71
2023/07/03 10:07:33;;;;;;;15.77;2.72;;;;;;;-144.73;66.39;54317.38;5028607;28;20024;-72
2023/07/03 10:09:59;;;;;;;26.83;3.90;;;;;;;-144.73;67.03;54358.44;5028808;28;20041;-72
2023/07/03 10:12:37;;;;;;;23.33;4.85;;;;;;;-144.73;66.92;54342.03;5013052;28;20033;-72
2023/07/03 10:15:08;;;;;;;12.55;2.42;;;;;;;-144.73;64.28;54311.22;5026629;28;20498;-72
2023/07/03 10:17:34;;;;;;;;;;;;;;;-144.73;61.21;54321.50;5017650;28;20474;-72
2023/07/03 10:20:09;;;;;;;15.18;2.90;;;;;;;-144.73;60.47;54329.72;5020503;28;19958;-72
2023/07/03 10:22:37;;;;;;;10.43;3.35;;;;;;;-144.73;58.14;54288.66;5009322;28;20045;-72
2023/07/03 10:25:06;;;;;;;17.10;2.60;;;;;;;-144.73;62.30;54381.00;5008221;28;20025;-71
2023/07/03 10:27:33;;;;;;;18.25;3.83;;;;;;;-144.73;63.03;54346.13;5030142;28;20029;-72
2023/07/03 10:30:00;;;;;;;11.07;3.00;;;;;;;-144.73;64.22;54362.53;5004260;28;20129;-72
2023/07/03 10:32:32;;;;;;;18.83;2.88;;;;;;;-144.73;65.58;54333.81;5010167;28;20028;-72
2023/07/03 10:35:02;;;;;;;12.43;3.13;;;;;;;-144.73;66.25;54374.84;5011864;28;20034;-72
2023/07/03 10:37:31;;;;;;;22.40;3.25;;;;;;;-144.73;66.15;54374.84;5014418;28;20120;-72
2023/07/03 10:40:12;;;;;;;17.42;2.97;;;;;;;-144.73;66.40;54337.91;5012804;28;20116;-72
2023/07/03 10:42:44;;;;;;;14.52;2.92;;;;;;;-144.73;69.06;54354.34;5027711;28;20032;-72
2023/07/03 10:45:10;;;;;;;;;;;;;;;-144.73;86.08;54395.38;5028851;28;20041;-72
2023/07/03 10:47:59;;;;;;;13.55;2.80;;;;;;;-144.73;100.00;54366.66;5011367;28;20385;-72
2023/07/03 10:50:31;;;;;;;7.95;2.38;;;;;;;-144.73;100.00;54358.44;5018078;28;20037;-72
2023/07/03 10:53:21;;;;;;;7.75;1.95;;;;;;;-144.73;100.00;54333.81;5026776;28;20029;-72
2023/07/03 10:56:00;;;;;;;10.80;2.58;;;;;;;-144.73;100.00;54358.44;5009073;28;20033;-71
2023/07/03 10:58:35;;;;;;;13.60;2.90;;;;;;;-144.73;100.00;54358.44;5007850;28;20053;-71
2023/07/03 11:01:27;;;;;;;7.50;2.25;;;;;;;-144.73;100.00;54391.28;5022440;28;20034;-72
2023/07/03 11:04:04;;;;;;;7.70;1.60;;;;;;;-144.73;100.00;54391.28;5031022;28;20029;-71
2023/07/03 11:07:05;;;;;;;10.25;2.25;;;;;;;-144.73;100.00;54407.69;5029949;28;20037;-71
2023/07/03 11:09:54;;;;;;;8.05;1.77;;;;;;;-144.73;100.00;54354.34;5012982;28;20021;-71
2023/07/03 11:12:47;;;;;;;7.97;1.95;;;;;;;-144.73;100.00;54370.75;5012590;28;20025;-71